Time;durP1;ratioP1;P1;durP2;ratioP2;P2;SDS_P1;SDS_P2;PMS_P1;PMS_P2;Temp;Humidity;BMP_temperature;BMP_pressure;BME280_temperature;BME280_humidity;BME280_pressure;Samples;Min_cycle;Max_cycle;Signal;HPM_P1;HPM_P2
2022/11/05 00:09:31;;;;;;;13.35;4.13;;;;;;;3.42;100.00;95125.13;5015444;28;20072;-71
2022/11/05 00:17:40;;;;;;;9.13;3.67;;;;;;;3.42;100.00;95135.53;5011884;28;20045;-71
2022/11/05 00:20:08;;;;;;;7.80;4.13;;;;;;;3.39;100.00;95133.41;5010466;28;20046;-70
2022/11/05 00:25:19;;;;;;;6.88;3.75;;;;;;;3.38;100.00;95150.03;5014663;28;20066;-71
2022/11/05 00:28:00;;;;;;;7.28;3.80;;;;;;;3.40;100.00;95148.00;5014228;28;20049;-71
2022/11/05 00:30:25;;;;;;;8.77;4.03;;;;;;;3.39;100.00;95151.59;5017208;28;20050;-71
2022/11/05 00:32:51;;;;;;;8.60;3.85;;;;;;;3.49;100.00;95154.38;5019789;28;20041;-71
2022/11/05 00:35:20;;;;;;;7.47;4.03;;;;;;;3.41;100.00;95157.38;5016507;28;20045;-71
2022/11/05 00:37:47;;;;;;;6.93;3.80;;;;;;;3.45;100.00;95161.09;5001531;28;20056;-71
2022/11/05 00:40:13;;;;;;;9.50;3.63;;;;;;;3.45;100.00;95161.88;4993173;28;20053;-70
2022/11/05 00:45:25;;;;;;;8.75;3.92;;;;;;;3.46;100.00;95163.47;5010935;28;20048;-71
2022/11/05 00:50:35;;;;;;;7.57;3.60;;;;;;;3.47;100.00;95164.25;5010547;28;20056;-71
2022/11/05 00:53:02;;;;;;;8.15;4.00;;;;;;;3.44;100.00;95169.91;5017298;28;20034;-70
2022/11/05 00:55:39;;;;;;;8.65;3.78;;;;;;;3.49;100.00;95172.59;5009747;28;20491;-70
2022/11/05 00:58:13;;;;;;;8.82;4.10;;;;;;;3.49;100.00;95169.22;4998735;28;20483;-71
2022/11/05 01:00:41;;;;;;;8.30;3.95;;;;;;;3.52;100.00;95164.34;5006857;28;20081;-71
2022/11/05 01:03:10;;;;;;;7.82;3.75;;;;;;;3.62;100.00;95167.13;5013978;28;20042;-70
2022/11/05 01:05:43;;;;;;;7.63;3.22;;;;;;;3.53;100.00;95163.31;5025437;28;20119;-71
2022/11/05 01:08:11;;;;;;;7.78;3.70;;;;;;;3.37;100.00;95171.88;4998211;28;20042;-70
2022/11/05 01:10:40;;;;;;;9.57;3.92;;;;;;;3.33;100.00;95168.16;5025789;28;20466;-70
2022/11/05 01:13:06;;;;;;;13.57;3.60;;;;;;;3.21;100.00;95176.78;5019110;28;20041;-71
2022/11/05 01:15:33;;;;;;;7.97;3.70;;;;;;;3.24;100.00;95176.31;5008346;28;20657;-70
2022/11/05 01:17:59;;;;;;;8.70;3.92;;;;;;;3.19;100.00;95178.81;5011122;28;20053;-71
2022/11/05 01:20:25;;;;;;;8.15;3.80;;;;;;;3.22;100.00;95178.34;4992842;28;20410;-70
2022/11/05 01:22:51;;;;;;;7.47;3.80;;;;;;;3.16;100.00;95179.28;5017911;28;20042;-70
2022/11/05 01:25:16;;;;;;;8.32;3.97;;;;;;;3.09;100.00;95178.63;5012831;28;20034;-75
2022/11/05 01:27:42;;;;;;;7.50;3.80;;;;;;;3.03;100.00;95187.31;5017202;28;20049;-70
2022/11/05 01:30:08;;;;;;;8.60;3.80;;;;;;;2.97;100.00;95196.81;5014751;28;20038;-71
2022/11/05 01:32:36;;;;;;;9.02;4.20;;;;;;;2.97;100.00;95201.25;5020924;28;20042;-70
2022/11/05 01:35:03;;;;;;;7.93;3.50;;;;;;;3.04;100.00;95196.72;5013673;28;20418;-71
2022/11/05 01:37:29;;;;;;;8.18;4.03;;;;;;;3.09;100.00;95196.81;5014363;28;20048;-71
2022/11/05 01:39:55;;;;;;;11.98;3.88;;;;;;;3.12;100.00;95198.97;5012433;28;20092;-71
2022/11/05 01:42:24;;;;;;;12.15;3.70;;;;;;;3.09;100.00;95189.03;5016351;28;20054;-71
2022/11/05 01:45:08;;;;;;;9.77;3.72;;;;;;;3.08;100.00;95193.41;5020893;28;20042;-71
2022/11/05 01:47:56;;;;;;;9.13;3.97;;;;;;;3.10;100.00;95201.00;5018037;28;20069;-71
2022/11/05 01:50:36;;;;;;;7.50;3.80;;;;;;;3.12;100.00;95204.16;4992323;28;20515;-71
2022/11/05 01:53:19;;;;;;;8.85;4.10;;;;;;;3.14;100.00;95202.13;5011547;28;20046;-71
2022/11/05 01:56:25;;;;;;;9.57;3.78;;;;;;;3.16;100.00;95202.69;5012442;28;20076;-71
2022/11/05 01:58:59;;;;;;;6.82;3.50;;;;;;;3.21;100.00;95210.56;4986037;28;20058;-71
2022/11/05 02:01:25;;;;;;;9.88;3.95;;;;;;;3.20;100.00;95205.59;4997086;28;20050;-70
2022/11/05 02:03:53;;;;;;;8.88;4.25;;;;;;;3.23;100.00;95211.16;5018219;28;20045;-71
2022/11/05 02:06:20;;;;;;;10.70;3.72;;;;;;;3.26;100.00;95209.88;5017134;28;20046;-71
2022/11/05 02:08:57;;;;;;;8.52;3.70;;;;;;;3.25;100.00;95209.09;5008107;28;20042;-71
2022/11/05 02:11:23;;;;;;;7.65;3.80;;;;;;;3.21;100.00;95210.56;4999865;28;20034;-71
2022/11/05 02:13:49;;;;;;;9.50;4.32;;;;;;;3.19;100.00;95204.84;5020603;28;20050;-70
2022/11/05 02:16:51;;;;;;;7.65;3.65;;;;;;;3.16;100.00;95200.09;5016302;28;20529;-70
2022/11/05 02:19:43;;;;;;;8.02;3.60;;;;;;;3.20;100.00;95206.38;5024259;28;20061;-71
2022/11/05 02:22:25;;;;;;;8.52;3.80;;;;;;;3.18;100.00;95207.66;5014570;28;20049;-71
2022/11/05 02:25:03;;;;;;;7.88;3.42;;;;;;;3.13;100.00;95205.72;5005946;28;20041;-71
2022/11/05 02:27:40;;;;;;;10.90;3.67;;;;;;;3.08;100.00;95203.03;5009036;28;20045;-71
2022/11/05 02:30:19;;;;;;;8.35;3.65;;;;;;;3.02;100.00;95198.75;5011716;28;20037;-71
2022/11/05 02:32:51;;;;;;;7.35;3.35;;;;;;;2.93;100.00;95200.91;5031705;28;20043;-71
2022/11/05 02:35:44;;;;;;;5.82;3.38;;;;;;;2.78;100.00;95193.59;5017402;28;20042;-71
2022/11/05 02:38:28;;;;;;;8.00;3.55;;;;;;;2.75;100.00;95186.25;5016983;28;20076;-71
2022/11/05 02:41:21;;;;;;;8.13;3.42;;;;;;;2.69;100.00;95200.16;4993902;28;20100;-71
2022/11/05 02:44:19;;;;;;;8.90;3.80;;;;;;;2.68;100.00;95203.75;5017882;28;20046;-71
2022/11/05 02:47:27;;;;;;;10.50;3.67;;;;;;;2.76;100.00;95206.03;5015343;28;20042;-71
2022/11/05 02:50:23;;;;;;;7.15;3.75;;;;;;;2.85;100.00;95207.25;5014608;28;20038;-71
2022/11/05 02:53:26;;;;;;;8.80;3.45;;;;;;;2.78;100.00;95214.38;5012698;28;20065;-71
2022/11/05 02:55:59;;;;;;;7.22;3.75;;;;;;;2.60;100.00;95217.88;5010950;28;20070;-71
2022/11/05 02:58:29;;;;;;;9.90;3.95;;;;;;;2.59;100.00;95227.47;5021104;28;20446;-71
2022/11/05 03:00:56;;;;;;;13.93;4.20;;;;;;;2.63;100.00;95227.03;5007762;28;20050;-71
2022/11/05 03:03:30;;;;;;;8.45;4.00;;;;;;;2.61;100.00;95235.03;5011838;28;20057;-70
2022/11/05 03:06:14;;;;;;;11.77;4.47;;;;;;;2.60;100.00;95236.06;5012041;28;20061;-71
2022/11/05 03:08:43;;;;;;;9.10;4.47;;;;;;;2.70;100.00;95238.09;5009513;28;20038;-71
2022/11/05 03:11:14;;;;;;;8.23;4.22;;;;;;;2.78;100.00;95235.16;5024167;28;20395;-71
2022/11/05 03:13:43;;;;;;;7.57;3.72;;;;;;;2.78;100.00;95237.75;5027333;28;20041;-71
2022/11/05 03:16:17;;;;;;;8.55;3.72;;;;;;;2.83;100.00;95237.06;5015158;28;20049;-70
2022/11/05 03:18:50;;;;;;;9.93;4.00;;;;;;;2.88;100.00;95245.78;5023636;28;20045;-70
2022/11/05 03:21:37;;;;;;;9.75;4.35;;;;;;;2.92;100.00;95257.31;5006969;28;20044;-70
2022/11/05 03:24:11;;;;;;;10.82;4.72;;;;;;;2.97;100.00;95263.63;5010534;28;20403;-69
2022/11/05 03:26:48;;;;;;;11.40;4.50;;;;;;;2.98;100.00;95265.22;5004277;28;20049;-72
2022/11/05 03:29:22;;;;;;;8.43;4.13;;;;;;;3.07;100.00;95274.25;5015254;28;20283;-72
2022/11/05 03:31:51;;;;;;;11.50;4.38;;;;;;;3.05;100.00;95271.09;5007043;28;20034;-71
2022/11/05 03:34:21;;;;;;;9.10;4.45;;;;;;;3.14;100.00;95277.53;5009603;28;20045;-71
2022/11/05 03:36:52;;;;;;;11.13;4.50;;;;;;;3.21;100.00;95280.78;5012005;28;20125;-72
2022/11/05 03:39:28;;;;;;;9.13;4.57;;;;;;;3.24;100.00;95290.72;5010237;28;20050;-71
2022/11/05 03:41:56;;;;;;;10.45;4.35;;;;;;;3.23;100.00;95294.38;5009317;28;20486;-70
2022/11/05 03:44:27;;;;;;;9.75;4.53;;;;;;;3.27;100.00;95300.69;5013392;28;20418;-70
2022/11/05 03:46:59;;;;;;;10.68;4.57;;;;;;;3.27;100.00;95303.28;5017697;28;20097;-70
2022/11/05 03:49:31;;;;;;;8.77;4.50;;;;;;;3.33;100.00;95303.41;5007764;28;20049;-71
2022/11/05 03:52:11;;;;;;;13.13;4.57;;;;;;;3.37;100.00;95309.72;5010984;28;20038;-70
2022/11/05 03:54:37;;;;;;;10.75;4.68;;;;;;;3.40;100.00;95311.88;5011874;28;20046;-70
2022/11/05 03:57:13;;;;;;;8.45;4.18;;;;;;;3.49;100.00;95318.28;5013629;28;20150;-70
2022/11/05 03:59:42;;;;;;;8.93;4.40;;;;;;;3.59;100.00;95317.72;4999009;28;20120;-70
2022/11/05 04:02:13;;;;;;;13.88;4.95;;;;;;;3.54;100.00;95308.00;5005420;28;20042;-70
2022/11/05 04:04:39;;;;;;;12.85;4.82;;;;;;;3.59;100.00;95313.31;5010243;28;20053;-71
2022/11/05 04:15:18;;;;;;;9.40;4.70;;;;;;;3.74;100.00;95325.84;5011585;28;20101;-70
2022/11/05 04:17:43;;;;;;;10.52;4.45;;;;;;;3.74;100.00;95319.84;5013994;28;20046;-70
2022/11/05 04:25:48;;;;;;;11.13;4.75;;;;;;;3.89;100.00;95322.72;5026008;28;20037;-69
2022/11/05 04:28:14;;;;;;;9.32;4.82;;;;;;;3.94;100.00;95325.44;5018143;28;20041;-70
2022/11/05 04:30:40;;;;;;;12.43;5.80;;;;;;;3.95;100.00;95327.03;4983239;28;20042;-70
2022/11/05 04:33:14;;;;;;;12.70;5.38;;;;;;;3.98;100.00;95321.34;5026862;28;20048;-70
2022/11/05 04:35:41;;;;;;;15.85;4.57;;;;;;;4.06;100.00;95325.38;5020534;28;20060;-71
2022/11/05 04:38:09;;;;;;;10.85;4.88;;;;;;;4.08;100.00;95325.16;5021978;28;20549;-71
2022/11/05 04:40:36;;;;;;;12.40;5.22;;;;;;;4.10;100.00;95320.53;5016541;28;20042;-70
2022/11/05 04:43:01;;;;;;;10.23;4.55;;;;;;;4.11;100.00;95329.94;5016869;28;20497;-70
2022/11/05 04:45:30;;;;;;;10.73;4.78;;;;;;;4.20;100.00;95335.56;5025772;28;20038;-70
2022/11/05 04:47:56;;;;;;;8.93;4.57;;;;;;;4.15;100.00;95336.22;5015385;28;20510;-70
2022/11/05 04:50:22;;;;;;;10.75;4.82;;;;;;;4.09;100.00;95337.16;5010234;28;20056;-70
2022/11/05 04:52:47;;;;;;;13.10;4.95;;;;;;;4.08;100.00;95341.59;5025353;28;20042;-70
2022/11/05 04:55:13;;;;;;;10.50;4.65;;;;;;;4.09;100.00;95347.59;5008565;28;20070;-70
2022/11/05 04:57:39;;;;;;;8.75;4.82;;;;;;;4.10;100.00;95349.16;5014868;28;20049;-70
2022/11/05 05:00:06;;;;;;;11.25;4.85;;;;;;;4.12;100.00;95350.53;5008702;28;20122;-70
2022/11/05 05:02:32;;;;;;;12.90;5.55;;;;;;;4.07;100.00;95349.63;5010147;28;20049;-69
2022/11/05 05:04:57;;;;;;;12.32;5.38;;;;;;;4.07;100.00;95349.63;4992838;28;20041;-71
2022/11/05 05:07:23;;;;;;;12.05;5.38;;;;;;;4.10;100.00;95354.38;5014026;28;20038;-71
2022/11/05 05:09:49;;;;;;;11.85;5.70;;;;;;;4.11;100.00;95355.97;5008443;28;20408;-71
2022/11/05 05:12:14;;;;;;;12.48;5.70;;;;;;;4.09;100.00;95358.78;5017557;28;20088;-71
2022/11/05 05:14:40;;;;;;;11.65;5.90;;;;;;;4.14;100.00;95355.50;5013747;28;20046;-71
2022/11/05 05:17:05;;;;;;;12.52;5.88;;;;;;;4.15;100.00;95359.66;5017120;28;20111;-71
2022/11/05 05:21:37;;;;;;;9.98;4.70;;;;;;;4.22;100.00;95360.31;5011844;28;20118;-71
2022/11/05 05:22:16;;;;;;;13.82;5.40;;;;;;;4.23;100.00;95364.50;5017005;28;20437;-70
2022/11/05 05:24:42;;;;;;;16.20;5.57;;;;;;;4.24;100.00;95368.72;5013815;28;20045;-71
2022/11/05 05:27:07;;;;;;;12.48;5.75;;;;;;;4.21;100.00;95371.78;5018171;28;20038;-71
2022/11/05 05:29:33;;;;;;;12.80;5.32;;;;;;;4.20;100.00;95372.81;5015841;28;20050;-70
2022/11/05 05:31:58;;;;;;;13.38;5.68;;;;;;;4.26;100.00;95379.69;5003206;28;20046;-70
2022/11/05 05:34:24;;;;;;;13.43;6.28;;;;;;;4.28;100.00;95382.84;5030027;28;20061;-70
2022/11/05 05:36:49;;;;;;;17.98;5.60;;;;;;;4.34;100.00;95381.91;5024737;28;20034;-70
2022/11/05 05:39:15;;;;;;;9.90;5.72;;;;;;;4.42;100.00;95382.56;5001483;28;20407;-71
2022/11/05 05:41:41;;;;;;;15.25;5.20;;;;;;;4.37;100.00;95385.06;5023987;28;20495;-71
2022/11/05 05:44:06;;;;;;;13.57;5.65;;;;;;;4.30;100.00;95380.03;5024577;28;20042;-71
2022/11/05 05:46:32;;;;;;;11.85;5.45;;;;;;;4.34;100.00;95371.50;5015786;28;20049;-70
2022/11/05 05:48:58;;;;;;;10.43;5.32;;;;;;;4.27;100.00;95368.25;5013084;28;20466;-70
2022/11/05 05:51:23;;;;;;;11.63;6.03;;;;;;;4.19;100.00;95384.22;5016943;28;20049;-70
2022/11/05 05:53:49;;;;;;;13.80;6.10;;;;;;;4.24;100.00;95386.94;5027853;28;20053;-70
2022/11/05 05:56:18;;;;;;;13.65;5.28;;;;;;;4.31;100.00;95377.19;5012428;28;20057;-70
2022/11/05 05:58:43;;;;;;;11.90;5.40;;;;;;;4.30;100.00;95385.22;5016698;28;20045;-70
2022/11/05 06:01:14;;;;;;;15.32;5.70;;;;;;;4.32;100.00;95389.19;5010319;28;20108;-71
2022/11/05 06:03:39;;;;;;;12.80;5.65;;;;;;;4.26;100.00;95389.31;5022666;28;20042;-70
2022/11/05 06:06:09;;;;;;;15.80;5.63;;;;;;;4.25;100.00;95392.94;5012903;28;20555;-71
2022/11/05 06:08:34;;;;;;;15.55;5.82;;;;;;;4.32;100.00;95398.81;4995741;28;20046;-71
2022/11/05 06:11:01;;;;;;;13.70;6.30;;;;;;;4.36;100.00;95399.16;5014691;28;20383;-72
2022/11/05 06:13:27;;;;;;;13.77;5.78;;;;;;;4.31;100.00;95403.22;5015220;28;20037;-72
2022/11/05 06:15:52;;;;;;;19.38;6.28;;;;;;;4.32;100.00;95404.81;5013019;28;20089;-72
2022/11/05 06:18:18;;;;;;;25.75;8.18;;;;;;;4.29;100.00;95402.66;5023528;28;20495;-81
2022/11/05 06:20:44;;;;;;;24.98;7.97;;;;;;;4.30;100.00;95408.69;5001536;28;20046;-74
2022/11/05 06:23:10;;;;;;;18.02;7.78;;;;;;;4.35;100.00;95408.75;5015429;28;20053;-75
2022/11/05 06:25:35;;;;;;;17.38;6.97;;;;;;;4.43;100.00;95420.63;5015457;28;20045;-73
2022/11/05 06:28:01;;;;;;;15.43;5.75;;;;;;;4.44;100.00;95417.00;5023406;28;20124;-73
2022/11/05 06:30:26;;;;;;;13.25;6.15;;;;;;;4.43;100.00;95431.06;5024035;28;20478;-72
2022/11/05 06:32:52;;;;;;;17.23;6.38;;;;;;;4.48;100.00;95428.53;5026174;28;20042;-72
2022/11/05 06:35:17;;;;;;;23.10;10.75;;;;;;;4.51;100.00;95433.28;5014889;28;20053;-73
2022/11/05 06:37:43;;;;;;;15.38;7.50;;;;;;;4.53;100.00;95433.84;5018831;28;20069;-73
2022/11/05 06:40:09;;;;;;;17.63;7.45;;;;;;;4.58;100.00;95433.94;5000569;28;20469;-72
2022/11/05 06:42:34;;;;;;;14.57;6.68;;;;;;;4.53;100.00;95440.88;5021764;28;20056;-76
2022/11/05 06:45:00;;;;;;;17.02;7.07;;;;;;;4.50;100.00;95439.53;4999838;28;20033;-72
2022/11/05 06:47:26;;;;;;;16.42;7.82;;;;;;;4.53;100.00;95446.88;5022182;28;20080;-72
2022/11/05 06:49:51;;;;;;;17.83;7.07;;;;;;;4.60;100.00;95444.94;5013400;28;20042;-72
2022/11/05 06:52:17;;;;;;;18.55;7.90;;;;;;;4.58;100.00;95452.19;5009020;28;20034;-73
2022/11/05 06:54:42;;;;;;;23.20;8.05;;;;;;;4.57;100.00;95453.22;5024076;28;20045;-72
2022/11/05 06:57:09;;;;;;;37.25;8.68;;;;;;;4.66;100.00;95464.84;5021020;28;20064;-72
2022/11/05 06:59:36;;;;;;;30.48;8.35;;;;;;;4.63;100.00;95464.53;5014128;28;20038;-73
2022/11/05 07:02:02;;;;;;;31.05;9.68;;;;;;;4.58;100.00;95467.81;5015500;28;20064;-74
2022/11/05 07:04:27;;;;;;;30.38;10.98;;;;;;;4.65;100.00;95481.50;5012160;28;20045;-72
2022/11/05 07:06:53;;;;;;;22.77;7.30;;;;;;;4.69;100.00;95472.19;5018848;28;20053;-75
2022/11/05 07:09:18;;;;;;;20.75;7.70;;;;;;;4.67;100.00;95484.69;5017286;28;20045;-72
2022/11/05 07:11:44;;;;;;;26.90;8.85;;;;;;;4.66;100.00;95483.09;5015780;28;20061;-72
2022/11/05 07:14:09;;;;;;;18.70;7.35;;;;;;;4.74;100.00;95488.97;5011643;28;20046;-71
2022/11/05 07:16:35;;;;;;;19.63;7.22;;;;;;;4.73;100.00;95487.41;5012412;28;20092;-72
2022/11/05 07:19:00;;;;;;;17.63;6.65;;;;;;;4.74;100.00;95494.19;5015308;28;20038;-72
2022/11/05 07:21:27;;;;;;;17.10;6.60;;;;;;;4.85;100.00;95495.94;5021887;28;20038;-72
2022/11/05 07:23:53;;;;;;;15.18;6.88;;;;;;;4.86;100.00;95500.16;5015668;28;20490;-73
2022/11/05 07:26:19;;;;;;;15.73;7.00;;;;;;;4.81;100.00;95495.63;5006228;28;20072;-73
2022/11/05 07:28:44;;;;;;;18.70;6.47;;;;;;;5.00;100.00;95508.50;5015299;28;20515;-73
2022/11/05 07:31:10;;;;;;;16.52;6.85;;;;;;;4.94;100.00;95510.22;5010422;28;20037;-73
2022/11/05 07:33:35;;;;;;;14.48;6.05;;;;;;;5.01;100.00;95508.25;5024150;28;20042;-73
2022/11/05 07:36:01;;;;;;;15.23;6.63;;;;;;;5.15;100.00;95507.97;5006809;28;20045;-73
2022/11/05 07:38:26;;;;;;;14.82;7.03;;;;;;;5.16;100.00;95512.94;5000101;28;20041;-72
2022/11/05 07:40:52;;;;;;;13.55;6.15;;;;;;;5.18;100.00;95510.88;5011568;28;20049;-73
2022/11/05 07:43:17;;;;;;;14.20;6.38;;;;;;;5.20;100.00;95513.25;5018264;28;20534;-73
2022/11/05 07:45:44;;;;;;;16.15;6.97;;;;;;;5.24;100.00;95519.59;5011326;28;22200;-72
2022/11/05 07:48:10;;;;;;;18.80;7.50;;;;;;;5.31;100.00;95509.00;5029289;28;20119;-72
2022/11/05 07:50:36;;;;;;;19.35;7.85;;;;;;;5.36;100.00;95512.50;4992829;28;20752;-76
2022/11/05 07:53:07;;;;;;;17.17;7.18;;;;;;;5.44;100.00;95523.56;5027928;28;20083;-72
2022/11/05 07:55:33;;;;;;;14.68;7.10;;;;;;;5.57;100.00;95523.25;5008814;28;20038;-71
2022/11/05 07:57:58;;;;;;;19.05;8.15;;;;;;;5.72;100.00;95526.13;5021877;28;20580;-72
2022/11/05 08:00:25;;;;;;;16.65;7.93;;;;;;;5.86;100.00;95531.00;5007919;28;20108;-72
2022/11/05 08:03:00;;;;;;;17.55;8.00;;;;;;;5.95;100.00;95526.97;5026267;28;20073;-72
2022/11/05 08:05:27;;;;;;;20.38;8.18;;;;;;;5.98;100.00;95530.97;5028941;28;20037;-73
2022/11/05 08:07:54;;;;;;;19.58;8.40;;;;;;;6.05;100.00;95535.00;5003896;28;20112;-73
2022/11/05 08:10:20;;;;;;;22.20;8.95;;;;;;;6.09;100.00;95529.28;5010372;28;20053;-72
2022/11/05 08:12:46;;;;;;;18.70;8.43;;;;;;;6.16;100.00;95529.91;5011899;28;20384;-72
2022/11/05 08:15:11;;;;;;;21.30;9.30;;;;;;;6.18;100.00;95523.41;5010177;28;20049;-72
2022/11/05 08:17:37;;;;;;;17.83;8.90;;;;;;;6.32;100.00;95536.13;5009900;28;20415;-72
2022/11/05 08:20:03;;;;;;;20.88;9.25;;;;;;;6.35;100.00;95528.59;5007641;28;20096;-72
2022/11/05 08:22:28;;;;;;;21.77;9.88;;;;;;;6.40;100.00;95531.28;5012930;28;20046;-72
2022/11/05 08:24:54;;;;;;;21.20;9.25;;;;;;;6.48;100.00;95527.47;5009333;28;20502;-73
2022/11/05 08:27:19;;;;;;;21.85;9.68;;;;;;;6.53;100.00;95529.34;5006427;28;20092;-73
2022/11/05 08:29:45;;;;;;;19.85;9.00;;;;;;;6.63;100.00;95529.47;5005588;28;20038;-73
2022/11/05 08:32:11;;;;;;;18.92;9.27;;;;;;;6.54;100.00;95530.94;5012586;28;20137;-73
2022/11/05 08:34:36;;;;;;;20.63;10.43;;;;;;;6.64;100.00;95546.75;5004200;28;20041;-72
2022/11/05 08:37:02;;;;;;;21.83;10.40;;;;;;;6.62;100.00;95535.72;5009239;28;20053;-72
2022/11/05 08:39:28;;;;;;;21.67;10.02;;;;;;;6.59;100.00;95539.63;5008277;28;20041;-72
2022/11/05 08:41:53;;;;;;;18.98;9.18;;;;;;;6.67;100.00;95535.78;4996618;28;20099;-72
2022/11/05 08:44:19;;;;;;;22.27;14.52;;;;;;;6.68;100.00;95537.38;5015722;28;20042;-73
2022/11/05 08:46:44;;;;;;;23.95;10.93;;;;;;;6.67;100.00;95535.78;5006633;28;20768;-72
2022/11/05 08:49:10;;;;;;;18.63;9.43;;;;;;;6.67;100.00;95535.00;5010012;28;20046;-72
2022/11/05 08:51:35;;;;;;;22.38;9.02;;;;;;;6.70;100.00;95524.84;5013615;28;20072;-72
2022/11/05 08:54:01;;;;;;;17.08;9.00;;;;;;;6.67;100.00;95529.78;5012565;28;20423;-72
2022/11/05 08:56:26;;;;;;;19.42;8.77;;;;;;;6.64;100.00;95525.81;5010619;28;20034;-72
2022/11/05 08:58:52;;;;;;;20.05;9.57;;;;;;;6.66;100.00;95526.34;5012282;28;20045;-72
2022/11/05 09:01:18;;;;;;;19.05;9.15;;;;;;;6.62;100.00;95534.94;5010478;28;20073;-73
2022/11/05 09:03:43;;;;;;;17.33;9.07;;;;;;;6.69;100.00;95538.94;5001633;28;20037;-72
2022/11/05 09:06:09;;;;;;;18.27;7.95;;;;;;;6.68;100.00;95534.78;5018479;28;20042;-72
2022/11/05 09:08:34;;;;;;;18.45;8.77;;;;;;;6.70;100.00;95540.53;5011263;28;20041;-72
2022/11/05 09:11:00;;;;;;;17.02;7.50;;;;;;;6.58;100.00;95537.28;5002161;28;20050;-73
2022/11/05 09:13:25;;;;;;;14.60;7.30;;;;;;;6.55;100.00;95548.19;5022194;28;20037;-73
2022/11/05 09:15:52;;;;;;;14.32;5.70;;;;;;;6.49;100.00;95543.94;5023685;28;20041;-71
2022/11/05 09:18:18;;;;;;;12.98;6.40;;;;;;;6.52;100.00;95543.44;5021806;28;20083;-72
2022/11/05 09:20:44;;;;;;;13.52;6.80;;;;;;;6.55;100.00;95537.72;5016277;28;20041;-72
2022/11/05 09:23:12;;;;;;;13.13;6.03;;;;;;;6.38;100.00;95549.03;5018116;28;20451;-72
2022/11/05 09:25:38;;;;;;;10.02;5.55;;;;;;;6.37;100.00;95550.06;5023917;28;20967;-72
2022/11/05 09:28:12;;;;;;;13.88;6.55;;;;;;;6.34;100.00;95547.94;5022060;28;20064;-73
2022/11/05 09:30:39;;;;;;;;;;;;;;;6.43;100.00;95552.75;5009268;28;20053;-73
2022/11/05 09:33:04;;;;;;;17.88;7.57;;;;;;;6.44;100.00;95556.94;5011133;28;19960;-72
2022/11/05 09:35:30;;;;;;;17.48;6.75;;;;;;;6.52;100.00;95569.59;5014068;28;20038;-73
2022/11/05 09:37:55;;;;;;;14.82;6.40;;;;;;;6.48;100.00;95563.25;5021847;28;20543;-72
2022/11/05 09:40:23;;;;;;;16.00;7.85;;;;;;;6.48;100.00;95569.28;5015731;28;20042;-72
2022/11/05 09:42:53;;;;;;;11.27;4.75;;;;;;;6.48;100.00;95568.50;5026126;28;20045;-72
2022/11/05 09:45:23;;;;;;;11.55;4.25;;;;;;;6.45;100.00;95574.19;5024293;28;20042;-72
2022/11/05 09:47:57;;;;;;;8.77;4.40;;;;;;;6.46;100.00;95584.41;5019828;28;20099;-72
2022/11/05 09:50:37;;;;;;;8.23;3.33;;;;;;;6.36;100.00;95585.06;5027948;28;20045;-72
2022/11/05 09:53:03;;;;;;;7.22;3.45;;;;;;;6.36;100.00;95587.69;5024183;28;20048;-72
2022/11/05 09:55:37;;;;;;;7.85;3.58;;;;;;;6.40;100.00;95582.78;5024150;28;20037;-72
2022/11/05 09:58:12;;;;;;;5.97;3.13;;;;;;;6.35;100.00;95585.31;5028346;28;20050;-73
2022/11/05 10:00:38;;;;;;;7.20;3.80;;;;;;;6.37;100.00;95584.03;5022792;28;20038;-73
2022/11/05 10:03:10;;;;;;;8.38;4.78;;;;;;;6.43;100.00;95581.50;5021179;28;20042;-73
2022/11/05 10:05:37;;;;;;;7.32;3.80;;;;;;;6.47;100.00;95582.63;5018462;28;20046;-72
2022/11/05 10:08:21;;;;;;;6.57;3.03;;;;;;;6.56;100.00;95581.16;5019313;28;20104;-73
2022/11/05 10:10:50;;;;;;;5.68;3.13;;;;;;;6.69;100.00;95586.03;4991738;28;20063;-72
2022/11/05 10:13:27;;;;;;;7.00;3.60;;;;;;;6.69;100.00;95596.47;5028246;28;20038;-73
2022/11/05 10:16:06;;;;;;;6.80;3.20;;;;;;;6.66;100.00;95596.19;5018542;28;20053;-73
2022/11/05 10:18:38;;;;;;;5.53;3.13;;;;;;;6.74;100.00;95593.16;5017088;28;20037;-72
2022/11/05 10:21:05;;;;;;;7.30;3.47;;;;;;;6.71;100.00;95607.50;5010416;28;20056;-73
2022/11/05 10:23:31;;;;;;;6.03;3.10;;;;;;;6.70;100.00;95612.97;4998734;28;20034;-73
2022/11/05 10:26:06;;;;;;;6.78;3.40;;;;;;;6.67;100.00;95603.78;5012390;28;20376;-73
2022/11/05 10:28:34;;;;;;;8.63;3.22;;;;;;;6.67;100.00;95598.56;5003648;28;20070;-72
2022/11/05 10:31:11;;;;;;;6.22;3.35;;;;;;;6.72;100.00;95605.69;5009481;28;20042;-72
2022/11/05 10:33:51;;;;;;;6.47;3.35;;;;;;;6.81;100.00;95604.25;5019076;28;20048;-76
2022/11/05 10:36:23;;;;;;;8.18;4.65;;;;;;;6.91;100.00;95598.31;5014580;28;20426;-73
2022/11/05 10:38:49;;;;;;;11.95;5.65;;;;;;;6.94;100.00;95597.84;5015282;28;20041;-74
2022/11/05 10:41:27;;;;;;;9.82;4.82;;;;;;;7.04;100.00;95603.19;5019337;28;20045;-74
2022/11/05 10:44:32;;;;;;;9.05;4.60;;;;;;;7.13;100.00;95605.41;5012431;28;20045;-74
2022/11/05 10:47:23;;;;;;;11.07;4.95;;;;;;;7.17;100.00;95606.47;5014641;28;20042;-74
2022/11/05 10:50:11;;;;;;;10.90;5.03;;;;;;;7.15;100.00;95603.31;5016789;28;20041;-74
2022/11/05 10:52:54;;;;;;;11.52;5.43;;;;;;;7.20;100.00;95606.78;4999126;28;20034;-74
2022/11/05 10:55:33;;;;;;;10.77;5.18;;;;;;;7.14;100.00;95612.19;4994975;28;20080;-73
2022/11/05 10:58:14;;;;;;;9.57;4.65;;;;;;;7.18;100.00;95608.06;4996114;28;20115;-73
2022/11/05 11:00:41;;;;;;;11.57;5.05;;;;;;;7.23;100.00;95613.34;5008790;28;20083;-76
2022/11/05 11:03:33;;;;;;;10.43;4.88;;;;;;;7.28;100.00;95613.41;5008587;28;20470;-76
2022/11/05 11:06:06;;;;;;;12.27;4.72;;;;;;;7.35;100.00;95611.38;5008306;28;20816;-73
2022/11/05 11:08:34;;;;;;;9.10;4.70;;;;;;;7.55;100.00;95617.88;5023662;28;20037;-73
2022/11/05 11:11:09;;;;;;;11.05;4.47;;;;;;;7.57;100.00;95615.78;5007995;28;20069;-75
2022/11/05 11:14:12;;;;;;;12.75;4.65;;;;;;;7.59;100.00;95613.72;5019200;28;20470;-77
2022/11/05 11:16:56;;;;;;;11.25;4.85;;;;;;;7.62;100.00;95602.75;5010727;28;20569;-72
2022/11/05 11:19:34;;;;;;;9.70;4.70;;;;;;;7.71;100.00;95606.50;5019485;28;20050;-73
2022/11/05 11:22:03;;;;;;;9.43;5.13;;;;;;;8.07;100.00;95617.28;5015866;28;20290;-73
2022/11/05 11:24:39;;;;;;;10.13;5.38;;;;;;;9.41;100.00;95604.88;5015138;28;20057;-74
2022/11/05 11:27:26;;;;;;;10.48;5.22;;;;;;;8.92;100.00;95613.91;5002328;28;20038;-74
2022/11/05 11:29:58;;;;;;;8.38;4.60;;;;;;;9.53;100.00;95623.03;5009700;28;20041;-73
2022/11/05 11:32:34;;;;;;;8.18;4.57;;;;;;;8.59;100.00;95621.09;5010153;28;20093;-73
2022/11/05 11:35:00;;;;;;;8.70;4.20;;;;;;;8.71;100.00;95628.75;5013072;28;20034;-72
2022/11/05 11:37:45;;;;;;;7.75;4.70;;;;;;;8.77;100.00;95622.47;5010297;28;20033;-73
2022/11/05 11:40:18;;;;;;;8.38;4.20;;;;;;;9.01;100.00;95627.34;5015286;28;20050;-72
2022/11/05 11:42:47;;;;;;;11.00;4.10;;;;;;;8.55;100.00;95624.44;4992783;28;20129;-73
2022/11/05 11:45:17;;;;;;;7.10;3.80;;;;;;;8.31;100.00;95619.56;5021885;28;20718;-73
2022/11/05 11:47:49;;;;;;;6.72;3.35;;;;;;;8.02;100.00;95617.25;4993510;28;20049;-73
2022/11/05 11:50:30;;;;;;;7.18;3.70;;;;;;;7.88;100.00;95618.69;5014248;28;20038;-73
2022/11/05 11:53:20;;;;;;;6.10;3.22;;;;;;;7.99;100.00;95612.50;5011962;28;20073;-74
2022/11/05 11:56:04;;;;;;;6.05;3.58;;;;;;;7.78;100.00;95617.56;5012030;28;20088;-73
2022/11/05 11:58:37;;;;;;;9.63;4.10;;;;;;;7.90;100.00;95614.00;5014272;28;20040;-73
2022/11/05 12:01:37;;;;;;;7.45;3.65;;;;;;;7.80;100.00;95620.72;4995124;28;20049;-73
2022/11/05 12:04:40;;;;;;;7.53;3.67;;;;;;;7.71;100.00;95616.97;5011729;28;20038;-72
2022/11/05 12:07:16;;;;;;;7.75;3.80;;;;;;;7.66;100.00;95627.41;4978961;28;20153;-76
2022/11/05 12:09:53;;;;;;;7.05;3.80;;;;;;;7.45;100.00;95629.81;5000029;28;20469;-77
2022/11/05 12:12:32;;;;;;;6.80;3.78;;;;;;;7.55;100.00;95638.81;5028421;28;20046;-77
2022/11/05 12:15:18;;;;;;;8.23;3.10;;;;;;;7.49;100.00;95635.34;4997699;28;20567;-78
2022/11/05 12:18:00;;;;;;;6.65;3.45;;;;;;;7.32;100.00;95635.44;4995786;28;20054;-78
2022/11/05 12:21:05;;;;;;;7.65;3.72;;;;;;;7.46;100.00;95635.84;4981155;28;20069;-77
2022/11/05 12:24:03;;;;;;;8.55;4.63;;;;;;;7.36;100.00;95641.75;5022905;28;20045;-78